createdAt,value
2022-08-17T00:02:25.297Z,8.70
2022-08-17T00:04:54.986Z,8.70
2022-08-17T00:07:21.960Z,8.60
2022-08-17T00:09:48.651Z,9.48
2022-08-17T00:12:43.237Z,9.57
2022-08-17T00:15:02.707Z,10.65
2022-08-17T00:17:29.440Z,10.30
2022-08-17T00:19:56.206Z,10.98
2022-08-17T00:22:34.703Z,11.25
2022-08-17T00:25:09.932Z,10.93
2022-08-17T00:27:37.024Z,10.43
2022-08-17T00:30:06.599Z,9.05
2022-08-17T00:33:10.814Z,9.43
2022-08-17T00:35:27.664Z,10.05
2022-08-17T00:37:54.601Z,9.20
2022-08-17T00:40:21.415Z,9.73
2022-08-17T00:42:52.570Z,9.25
2022-08-17T00:45:20.415Z,9.32
2022-08-17T00:47:47.937Z,9.40
2022-08-17T00:50:17.627Z,9.32
2022-08-17T00:52:52.099Z,9.15
2022-08-17T00:55:19.271Z,9.73
2022-08-17T00:57:53.338Z,8.48
2022-08-17T01:00:26.758Z,8.93
2022-08-17T01:03:03.779Z,9.00
2022-08-17T01:05:32.732Z,8.27
2022-08-17T01:08:01.018Z,8.80
2022-08-17T01:10:59.689Z,8.52
2022-08-17T01:13:21.442Z,8.32
2022-08-17T01:16:11.914Z,8.98
2022-08-17T01:18:39.325Z,9.18
2022-08-17T01:21:21.136Z,8.60
2022-08-17T01:23:47.900Z,9.90
2022-08-17T01:26:14.636Z,9.20
2022-08-17T01:28:53.852Z,9.38
2022-08-17T01:31:24.580Z,9.27
2022-08-17T01:33:51.571Z,9.80
2022-08-17T01:36:18.704Z,9.48
2022-08-17T01:38:45.440Z,10.20
2022-08-17T01:41:14.236Z,9.45
2022-08-17T01:43:50.145Z,10.27
2022-08-17T01:46:22.345Z,9.57
2022-08-17T01:48:51.113Z,9.85
2022-08-17T01:51:18.058Z,10.13
2022-08-17T01:53:48.886Z,10.07
2022-08-17T01:56:18.392Z,10.70
2022-08-17T01:58:45.683Z,10.50
2022-08-17T02:01:18.703Z,9.88
2022-08-17T02:03:56.290Z,10.45
2022-08-17T02:06:30.446Z,10.63
2022-08-17T02:09:03.020Z,11.25
2022-08-17T02:11:32.720Z,12.15
2022-08-17T02:14:03.453Z,11.95
2022-08-17T02:16:36.843Z,11.65
2022-08-17T02:19:11.976Z,11.95
2022-08-17T02:21:40.592Z,12.23
2022-08-17T02:24:08.748Z,12.15
2022-08-17T02:26:35.484Z,11.35
2022-08-17T02:29:04.106Z,11.07
2022-08-17T02:31:31.256Z,11.60
2022-08-17T02:34:04.400Z,12.02
2022-08-17T02:36:33.309Z,13.00
2022-08-17T02:39:01.724Z,12.60
2022-08-17T02:41:28.585Z,12.73
2022-08-17T02:43:55.338Z,11.55
2022-08-17T02:46:22.560Z,11.90
2022-08-17T02:48:49.375Z,12.75
2022-08-17T02:51:16.026Z,12.32
2022-08-17T02:53:42.770Z,12.80
2022-08-17T02:56:09.513Z,12.75
2022-08-17T02:58:36.354Z,11.98
2022-08-17T03:01:07.896Z,12.75
2022-08-17T03:03:35.678Z,12.95
2022-08-17T03:06:03.334Z,13.30
2022-08-17T03:08:30.857Z,12.60
2022-08-17T03:10:57.570Z,12.90
2022-08-17T03:13:24.448Z,12.77
2022-08-17T03:15:51.287Z,12.95
2022-08-17T03:18:24.498Z,13.82
2022-08-17T03:21:00.613Z,12.85
2022-08-17T03:23:28.000Z,13.38
2022-08-17T03:25:56.856Z,13.75
2022-08-17T03:28:23.951Z,14.10
2022-08-17T03:30:54.269Z,13.30
2022-08-17T03:33:21.503Z,13.27
2022-08-17T03:35:48.295Z,13.77
2022-08-17T03:38:17.060Z,14.48
2022-08-17T03:40:58.481Z,14.07
2022-08-17T03:43:30.546Z,14.57
2022-08-17T03:46:28.659Z,12.70
2022-08-17T03:49:23.982Z,13.15
2022-08-17T03:52:09.496Z,13.10
2022-08-17T03:54:54.690Z,13.35
2022-08-17T03:57:21.605Z,12.77
2022-08-17T03:59:48.428Z,13.55
2022-08-17T04:02:27.520Z,14.27
2022-08-17T04:04:54.356Z,13.40
2022-08-17T04:07:25.192Z,13.18
2022-08-17T04:09:52.115Z,13.05
2022-08-17T04:12:20.603Z,13.45
2022-08-17T04:14:52.568Z,13.35
2022-08-17T04:17:23.287Z,12.90
2022-08-17T04:19:50.107Z,13.15
2022-08-17T04:22:30.732Z,13.57
2022-08-17T04:25:18.851Z,12.55
2022-08-17T04:27:45.703Z,13.30
2022-08-17T04:30:13.265Z,13.48
2022-08-17T04:33:06.170Z,13.27
2022-08-17T04:35:40.347Z,13.15
2022-08-17T04:38:08.785Z,12.57
2022-08-17T04:40:54.614Z,13.07
2022-08-17T04:43:23.105Z,14.07
2022-08-17T04:45:56.386Z,12.43
2022-08-17T04:48:36.409Z,13.30
2022-08-17T04:51:13.695Z,13.27
2022-08-17T04:53:44.077Z,12.95
2022-08-17T04:56:16.950Z,12.57
2022-08-17T04:58:53.877Z,11.48
2022-08-17T05:01:24.110Z,12.43
2022-08-17T05:04:02.377Z,13.48
2022-08-17T05:06:49.550Z,15.02
2022-08-17T05:09:17.603Z,13.75
2022-08-17T05:11:45.610Z,13.23
2022-08-17T05:14:13.136Z,13.93
2022-08-17T05:16:39.873Z,12.38
2022-08-17T05:19:06.619Z,11.88
2022-08-17T05:21:33.460Z,12.60
2022-08-17T05:24:00.265Z,11.88
2022-08-17T05:26:29.360Z,12.43
2022-08-17T05:28:59.572Z,11.25
2022-08-17T05:31:28.240Z,11.00
2022-08-17T05:33:55.044Z,10.60
2022-08-17T05:36:42.840Z,11.30
2022-08-17T05:39:08.532Z,11.43
2022-08-17T05:41:42.448Z,10.32
2022-08-17T05:44:09.225Z,10.05
2022-08-17T05:46:40.824Z,11.48
2022-08-17T05:49:08.558Z,10.48
2022-08-17T05:52:08.921Z,10.55
2022-08-17T05:55:16.198Z,9.02
2022-08-17T05:58:00.034Z,9.95
2022-08-17T06:00:31.478Z,10.50
2022-08-17T06:03:25.976Z,9.82
2022-08-17T06:06:14.625Z,10.43
2022-08-17T06:08:51.683Z,10.25
2022-08-17T06:11:31.091Z,10.30
2022-08-17T06:14:20.996Z,10.23
2022-08-17T06:16:54.672Z,10.48
2022-08-17T06:19:54.548Z,10.05
2022-08-17T06:22:23.928Z,10.13
2022-08-17T06:24:51.713Z,9.77
2022-08-17T06:27:39.418Z,9.85
2022-08-17T06:30:10.084Z,9.90
2022-08-17T06:32:39.152Z,8.82
2022-08-17T06:35:07.907Z,9.05
2022-08-17T06:37:55.949Z,10.55
2022-08-17T06:40:55.213Z,9.60
2022-08-17T06:43:34.039Z,9.50
2022-08-17T06:46:06.856Z,9.30
2022-08-17T06:48:57.924Z,9.20
2022-08-17T06:51:40.441Z,9.43
2022-08-17T06:54:10.599Z,9.43
2022-08-17T06:56:53.331Z,9.07
2022-08-17T06:59:36.378Z,9.25
2022-08-17T07:02:29.433Z,9.30
2022-08-17T07:05:09.978Z,8.98
2022-08-17T07:07:56.887Z,8.93
2022-08-17T07:10:25.885Z,8.68
2022-08-17T07:12:55.948Z,8.70
2022-08-17T07:15:34.003Z,8.77
2022-08-17T07:18:01.139Z,8.50
2022-08-17T07:20:28.057Z,7.43
2022-08-17T07:23:01.961Z,8.15
2022-08-17T07:25:30.765Z,7.82
2022-08-17T07:28:02.409Z,8.10
2022-08-17T07:30:45.600Z,8.07
2022-08-17T07:33:22.781Z,8.27
2022-08-17T07:35:50.219Z,8.25
2022-08-17T07:38:25.457Z,8.00
2022-08-17T07:41:02.675Z,7.15
2022-08-17T07:43:35.865Z,7.88
2022-08-17T07:46:30.417Z,6.75
2022-08-17T07:49:03.485Z,7.93
2022-08-17T07:51:31.794Z,7.03
2022-08-17T07:54:14.101Z,7.00
2022-08-17T07:56:50.574Z,6.18
2022-08-17T07:59:23.609Z,6.30
2022-08-17T08:02:05.238Z,6.10
2022-08-17T08:07:34.718Z,6.53
2022-08-17T08:10:04.732Z,6.57
2022-08-17T08:12:36.336Z,6.47
2022-08-17T08:15:25.724Z,6.22
2022-08-17T08:17:57.565Z,5.85
2022-08-17T08:20:51.029Z,6.10
2022-08-17T08:23:29.536Z,6.50
2022-08-17T08:25:59.583Z,5.90
2022-08-17T08:28:45.085Z,5.60
2022-08-17T08:31:24.510Z,5.60
2022-08-17T08:34:09.116Z,5.55
2022-08-17T08:37:16.366Z,5.55
2022-08-17T08:40:20.333Z,5.88
2022-08-17T08:43:02.324Z,5.90
2022-08-17T08:45:50.373Z,5.30
2022-08-17T08:48:53.156Z,5.97
2022-08-17T08:51:29.118Z,5.70
2022-08-17T08:54:35.182Z,5.43
2022-08-17T08:57:34.485Z,5.30
2022-08-17T09:00:15.758Z,5.03
2022-08-17T09:02:54.831Z,4.32
2022-08-17T09:05:43.035Z,4.82
2022-08-17T09:08:24.527Z,4.50
2022-08-17T09:10:51.229Z,4.30
2022-08-17T09:13:22.090Z,4.57
2022-08-17T09:15:57.325Z,4.90
2022-08-17T09:19:01.231Z,4.55
2022-08-17T09:21:22.466Z,4.15
2022-08-17T09:24:00.182Z,4.70
2022-08-17T09:26:35.210Z,4.18
2022-08-17T09:29:09.915Z,4.65
2022-08-17T09:31:49.128Z,4.20
2022-08-17T09:34:21.283Z,4.60
2022-08-17T09:37:04.142Z,4.38
2022-08-17T09:39:33.491Z,4.70
2022-08-17T09:42:13.989Z,3.92
2022-08-17T09:44:45.854Z,4.25
2022-08-17T09:47:20.069Z,4.22
2022-08-17T09:49:57.043Z,4.63
2022-08-17T09:52:26.379Z,4.65
2022-08-17T09:55:05.487Z,4.50
2022-08-17T09:57:42.820Z,4.00
2022-08-17T10:00:17.872Z,4.38
2022-08-17T10:03:05.842Z,4.07
2022-08-17T10:05:51.332Z,4.38
2022-08-17T10:08:55.589Z,4.90
2022-08-17T10:11:33.282Z,4.32
2022-08-17T10:14:37.887Z,3.50
2022-08-17T10:17:02.720Z,3.78
2022-08-17T10:19:51.357Z,3.60
2022-08-17T10:23:05.210Z,3.10
2022-08-17T10:25:55.805Z,3.65
2022-08-17T10:28:30.266Z,3.80
2022-08-17T10:34:06.744Z,4.05
2022-08-17T10:36:46.225Z,3.80
2022-08-17T10:39:21.982Z,3.85
2022-08-17T10:41:52.673Z,4.47
2022-08-17T10:44:45.780Z,4.05
2022-08-17T10:47:15.556Z,4.13
2022-08-17T10:49:49.596Z,4.22
2022-08-17T10:52:19.354Z,3.55
2022-08-17T10:55:06.420Z,4.05
2022-08-17T10:57:37.678Z,4.20
2022-08-17T11:00:15.410Z,4.93
2022-08-17T11:02:53.525Z,4.00
2022-08-17T11:05:43.275Z,6.28
2022-08-17T11:08:22.801Z,13.13
2022-08-17T11:11:07.007Z,9.07
2022-08-17T11:13:57.891Z,5.03
2022-08-17T11:16:52.412Z,4.85
2022-08-17T11:19:25.529Z,4.13
2022-08-17T11:22:33.332Z,4.53
2022-08-17T11:25:34.768Z,5.30
2022-08-17T11:28:28.130Z,5.35
2022-08-17T11:30:57.207Z,4.68
2022-08-17T11:33:29.961Z,5.10
2022-08-17T11:36:17.196Z,5.53
2022-08-17T11:39:10.077Z,5.03
2022-08-17T11:42:11.894Z,5.38
2022-08-17T11:45:32.308Z,5.22
2022-08-17T11:48:59.931Z,5.70
2022-08-17T11:52:01.615Z,6.22
2022-08-17T11:54:34.129Z,6.03
2022-08-17T11:57:26.375Z,6.60
2022-08-17T11:59:59.022Z,6.70
2022-08-17T12:02:35.640Z,6.55
2022-08-17T12:05:02.585Z,6.90
2022-08-17T12:07:32.647Z,6.78
2022-08-17T12:10:00.079Z,7.15
2022-08-17T12:12:36.004Z,6.75
2022-08-17T12:15:12.568Z,7.25
2022-08-17T12:17:42.629Z,7.28
2022-08-17T12:20:40.009Z,6.82
2022-08-17T12:23:16.319Z,7.10
2022-08-17T12:26:10.088Z,8.48
2022-08-17T12:28:39.029Z,8.48
2022-08-17T12:31:24.794Z,9.13
2022-08-17T12:33:51.858Z,7.72
2022-08-17T12:36:26.617Z,8.85
2022-08-17T12:39:13.756Z,8.30
2022-08-17T12:41:47.325Z,9.93
2022-08-17T12:44:21.135Z,8.77
2022-08-17T12:46:55.037Z,9.75
2022-08-17T12:49:28.213Z,10.68
2022-08-17T12:52:21.548Z,13.57
2022-08-17T12:55:11.807Z,11.70
2022-08-17T12:57:39.507Z,13.13
2022-08-17T13:03:22.188Z,14.57
2022-08-17T13:06:06.492Z,13.63
2022-08-17T13:08:36.493Z,12.63
2022-08-17T13:11:04.680Z,13.40
2022-08-17T13:13:34.883Z,13.50
2022-08-17T13:16:15.496Z,13.73
2022-08-17T13:18:55.465Z,14.88
2022-08-17T13:21:28.023Z,14.45
2022-08-17T13:24:14.709Z,13.98
2022-08-17T13:27:02.065Z,15.55
2022-08-17T13:29:44.322Z,14.77
2022-08-17T13:32:13.775Z,13.90
2022-08-17T13:35:09.659Z,14.20
2022-08-17T13:40:49.241Z,16.88
2022-08-17T13:43:49.728Z,15.82
2022-08-17T13:46:18.750Z,14.13
2022-08-17T13:48:46.263Z,16.08
2022-08-17T13:51:17.760Z,15.63
2022-08-17T13:53:45.394Z,15.40
2022-08-17T13:56:37.503Z,15.60
2022-08-17T13:59:11.520Z,16.60
2022-08-17T14:01:53.145Z,15.77
2022-08-17T14:04:32.028Z,18.85
2022-08-17T14:07:13.105Z,17.83
2022-08-17T14:09:55.893Z,19.08
2022-08-17T14:12:27.929Z,18.33
2022-08-17T14:14:56.269Z,16.67
2022-08-17T14:17:24.619Z,17.38
2022-08-17T14:19:51.916Z,16.13
2022-08-17T14:22:23.704Z,13.93
2022-08-17T14:24:51.567Z,13.57
2022-08-17T14:27:24.296Z,15.27
2022-08-17T14:29:51.214Z,19.30
2022-08-17T14:32:25.880Z,20.17
2022-08-17T14:34:53.348Z,19.90
2022-08-17T14:37:21.731Z,22.15
2022-08-17T14:39:49.549Z,21.42
2022-08-17T14:42:16.522Z,23.92
2022-08-17T14:44:43.887Z,20.08
2022-08-17T14:47:15.788Z,22.50
2022-08-17T14:49:47.690Z,20.90
2022-08-17T14:52:18.404Z,20.50
2022-08-17T14:54:47.135Z,19.95
2022-08-17T14:57:24.678Z,18.83
2022-08-17T15:00:01.264Z,19.15
2022-08-17T15:02:29.718Z,18.67
2022-08-17T15:05:02.451Z,19.45
2022-08-17T15:07:30.845Z,18.13
2022-08-17T15:10:02.111Z,18.85
2022-08-17T15:12:34.135Z,20.45
2022-08-17T15:15:04.917Z,20.88
2022-08-17T15:17:45.186Z,19.50
2022-08-17T15:20:19.152Z,21.80
2022-08-17T15:22:47.136Z,19.98
2022-08-17T15:25:15.744Z,20.55
2022-08-17T15:27:42.637Z,21.13
2022-08-17T15:30:10.584Z,20.52
2022-08-17T15:32:40.619Z,21.77
2022-08-17T15:35:11.926Z,19.25
2022-08-17T15:37:41.923Z,23.70
2022-08-17T15:40:10.017Z,21.98
2022-08-17T15:42:38.562Z,22.30
2022-08-17T15:45:13.211Z,23.27
2022-08-17T15:47:41.272Z,25.38
2022-08-17T15:50:10.909Z,27.52
2022-08-17T15:52:40.527Z,27.13
2022-08-17T15:55:11.765Z,28.10
2022-08-17T15:57:39.290Z,30.05
2022-08-17T16:00:09.466Z,25.90
2022-08-17T16:03:45.050Z,28.17
2022-08-17T16:05:40.799Z,26.35
2022-08-17T16:08:07.702Z,24.70
2022-08-17T16:10:36.157Z,23.92
2022-08-17T16:13:04.167Z,23.63
2022-08-17T16:15:31.797Z,25.23
2022-08-17T16:18:06.566Z,21.88
2022-08-17T16:20:33.348Z,24.15
2022-08-17T16:23:00.264Z,24.02
2022-08-17T16:25:52.129Z,22.15
2022-08-17T16:31:07.988Z,22.60
2022-08-17T16:33:38.129Z,22.88
2022-08-17T16:36:07.345Z,24.33
2022-08-17T16:38:35.797Z,24.77
2022-08-17T16:41:06.242Z,23.40
2022-08-17T16:43:34.097Z,23.90
2022-08-17T16:46:06.745Z,24.52
2022-08-17T16:48:33.616Z,23.92
2022-08-17T16:51:04.132Z,23.42
2022-08-17T16:53:32.772Z,25.02
2022-08-17T16:56:02.215Z,26.95
2022-08-17T16:58:29.170Z,27.25
2022-08-17T17:00:59.418Z,26.65
2022-08-17T17:03:27.783Z,28.98
2022-08-17T17:06:43.689Z,27.27
2022-08-17T17:09:21.977Z,26.15
2022-08-17T17:11:53.909Z,28.90
2022-08-17T17:14:44.658Z,27.75
2022-08-17T17:17:35.967Z,27.65
2022-08-17T17:20:16.677Z,28.38
2022-08-17T17:23:08.206Z,26.00
2022-08-17T17:25:56.148Z,25.38
2022-08-17T17:28:33.602Z,24.63
2022-08-17T17:31:06.948Z,24.48
2022-08-17T17:34:00.417Z,23.95
2022-08-17T17:36:50.402Z,25.00
2022-08-17T17:39:19.568Z,25.50
2022-08-17T17:41:56.677Z,24.88
2022-08-17T17:44:45.623Z,25.30
2022-08-17T17:47:12.907Z,25.73
2022-08-17T17:49:46.335Z,25.58
2022-08-17T17:52:31.283Z,24.80
2022-08-17T17:55:07.394Z,25.70
2022-08-17T17:57:40.736Z,25.45
2022-08-17T18:00:52.923Z,25.42
2022-08-17T18:03:28.708Z,24.52
2022-08-17T18:06:22.563Z,27.92
2022-08-17T18:09:08.683Z,27.30
2022-08-17T18:12:02.280Z,26.55
2022-08-17T18:15:19.783Z,26.92
2022-08-17T18:18:11.327Z,26.00
2022-08-17T18:20:53.353Z,26.65
2022-08-17T18:23:25.575Z,27.67
2022-08-17T18:25:56.373Z,26.23
2022-08-17T18:28:39.064Z,27.48
2022-08-17T18:31:15.051Z,27.35
2022-08-17T18:33:48.046Z,27.45
2022-08-17T18:36:34.932Z,28.55
2022-08-17T18:39:14.607Z,26.63
2022-08-17T18:41:45.737Z,27.15
2022-08-17T18:44:30.456Z,26.52
2022-08-17T18:47:18.968Z,27.83
2022-08-17T18:50:12.767Z,29.13
2022-08-17T18:52:40.093Z,25.90
2022-08-17T18:55:33.216Z,27.30
2022-08-17T18:58:19.035Z,27.65
2022-08-17T19:00:48.873Z,26.73
2022-08-17T19:03:15.936Z,28.42
2022-08-17T19:06:00.082Z,27.92
2022-08-17T19:08:37.881Z,26.33
2022-08-17T19:11:09.169Z,27.48
2022-08-17T19:13:39.067Z,27.80
2022-08-17T19:16:15.937Z,27.65
2022-08-17T19:18:52.871Z,29.25
2022-08-17T19:21:22.123Z,28.92
2022-08-17T19:24:00.835Z,27.70
2022-08-17T19:26:53.637Z,27.52
2022-08-17T19:29:38.590Z,27.52
2022-08-17T19:32:08.084Z,26.90
2022-08-17T19:34:39.716Z,27.55
2022-08-17T19:37:38.023Z,28.75
2022-08-17T19:40:29.244Z,27.40
2022-08-17T19:43:14.165Z,30.27
2022-08-17T19:45:56.156Z,29.90
2022-08-17T19:48:27.657Z,28.98
2022-08-17T19:50:58.923Z,29.88
2022-08-17T19:54:04.291Z,28.92
2022-08-17T19:56:39.325Z,30.80
2022-08-17T19:59:35.932Z,30.92
2022-08-17T20:02:38.827Z,30.90
2022-08-17T20:05:19.548Z,31.15
2022-08-17T20:07:58.587Z,31.70
2022-08-17T20:10:45.243Z,31.40
2022-08-17T20:13:19.271Z,33.28
2022-08-17T20:16:01.093Z,32.90
2022-08-17T20:18:38.547Z,32.45
2022-08-17T20:21:20.175Z,29.67
2022-08-17T20:23:56.352Z,32.75
2022-08-17T20:26:55.380Z,30.83
2022-08-17T20:29:59.026Z,32.97
2022-08-17T20:32:32.401Z,32.92
2022-08-17T20:35:17.909Z,34.42
2022-08-17T20:38:12.192Z,35.13
2022-08-17T20:40:45.338Z,33.63
2022-08-17T20:43:37.321Z,35.40
2022-08-17T20:46:36.819Z,35.95
2022-08-17T20:49:57.953Z,36.78
2022-08-17T20:52:56.717Z,37.45
2022-08-17T20:55:35.808Z,38.03
2022-08-17T20:58:30.911Z,38.20
2022-08-17T21:00:59.665Z,37.08
2022-08-17T21:03:51.210Z,38.97
2022-08-17T21:06:20.765Z,39.20
2022-08-17T21:08:53.488Z,40.80
2022-08-17T21:11:58.242Z,38.40
2022-08-17T21:14:43.307Z,37.92
2022-08-17T21:17:17.812Z,37.88
2022-08-17T21:20:10.383Z,39.03
2022-08-17T21:22:59.764Z,38.75
2022-08-17T21:26:11.172Z,39.22
2022-08-17T21:29:31.706Z,38.10
2022-08-17T21:32:00.941Z,39.53
2022-08-17T21:35:17.557Z,39.50
2022-08-17T21:37:46.327Z,40.47
2022-08-17T21:40:12.985Z,39.58
2022-08-17T21:42:47.832Z,42.38
2022-08-17T21:45:20.093Z,42.00
2022-08-17T21:47:50.658Z,43.25
2022-08-17T21:50:24.164Z,41.30
2022-08-17T21:55:36.396Z,37.58
2022-08-17T21:58:14.195Z,40.33
2022-08-17T22:00:44.747Z,41.25
2022-08-17T22:03:23.759Z,40.05
2022-08-17T22:05:51.495Z,41.30
2022-08-17T22:08:23.930Z,40.75
2022-08-17T22:10:54.177Z,41.47
2022-08-17T22:13:23.147Z,40.40
2022-08-17T22:16:28.366Z,41.28
2022-08-17T22:18:58.098Z,40.30
2022-08-17T22:21:26.150Z,41.10
2022-08-17T22:24:05.500Z,40.50
2022-08-17T22:27:19.394Z,38.28
2022-08-17T22:29:58.968Z,40.00
2022-08-17T22:32:35.043Z,42.30
2022-08-17T22:35:26.688Z,39.60
2022-08-17T22:37:53.438Z,40.60
2022-08-17T22:40:31.741Z,43.00
2022-08-17T22:42:59.275Z,41.33
2022-08-17T22:45:28.448Z,41.63
2022-08-17T22:47:56.904Z,43.45
2022-08-17T22:50:26.783Z,41.47
2022-08-17T22:53:18.527Z,41.00
2022-08-17T22:56:12.562Z,39.53
2022-08-17T22:59:17.064Z,41.65
2022-08-17T23:01:46.565Z,43.30
2022-08-17T23:04:31.799Z,40.88
2022-08-17T23:06:58.480Z,42.60
2022-08-17T23:09:25.195Z,41.70
2022-08-17T23:11:57.406Z,41.05
2022-08-17T23:14:31.313Z,42.78
2022-08-17T23:17:01.749Z,41.70
2022-08-17T23:19:31.790Z,44.70
2022-08-17T23:21:59.739Z,45.03
2022-08-17T23:24:29.222Z,44.47
2022-08-17T23:26:57.413Z,45.97
2022-08-17T23:29:25.362Z,46.70
2022-08-17T23:31:52.241Z,45.42
2022-08-17T23:34:23.140Z,47.55
2022-08-17T23:36:52.406Z,47.28
2022-08-17T23:39:27.706Z,48.38
2022-08-17T23:41:58.825Z,47.72
2022-08-17T23:44:26.512Z,47.85
2022-08-17T23:46:54.332Z,48.20
2022-08-17T23:49:21.222Z,47.35
2022-08-17T23:51:48.586Z,48.05
2022-08-17T23:54:27.815Z,40.83
2022-08-17T23:56:54.518Z,49.58
2022-08-17T23:59:22.808Z,48.38
